Time;durP1;ratioP1;P1;durP2;ratioP2;P2;SDS_P1;SDS_P2;PMS_P1;PMS_P2;Temp;Humidity;BMP_temperature;BMP_pressure;BME280_temperature;BME280_humidity;BME280_pressure;Samples;Min_cycle;Max_cycle;Signal;HPM_P1;HPM_P2
2022/01/16 00:00:28;;;;;;;41.67;18.83;;;0.60;99.90;;;;;;5121963;27;20094;-77
2022/01/16 06:02:49;;;;;;;28.52;13.57;;;-1.80;99.90;;;;;;4945617;23;20075;-82
2022/01/16 06:05:17;;;;;;;26.88;13.68;;;-1.80;99.90;;;;;;4929928;29;20075;-80
2022/01/16 06:07:50;;;;;;;25.52;12.98;;;-1.90;99.90;;;;;;4926543;29;20056;-80
2022/01/16 06:10:17;;;;;;;25.50;12.68;;;-1.90;99.90;;;;;;4914190;29;20052;-81
2022/01/16 06:12:45;;;;;;;25.52;13.57;;;-2.00;99.90;;;;;;4928162;29;20072;-80
2022/01/16 06:15:12;;;;;;;26.00;13.48;;;-2.00;99.90;;;;;;4928986;29;20504;-84
2022/01/16 06:17:39;;;;;;;25.10;13.40;;;-2.10;99.90;;;;;;4909607;29;20096;-85
2022/01/16 06:20:09;;;;;;;27.77;13.55;;;-2.10;99.90;;;;;;4926143;29;20126;-85
2022/01/16 06:22:36;;;;;;;28.63;13.82;;;-2.10;99.90;;;;;;4935537;29;20091;-80
2022/01/16 06:25:04;;;;;;;26.45;13.48;;;-2.10;99.90;;;;;;4926001;29;20115;-80
2022/01/16 06:27:31;;;;;;;26.48;13.35;;;-2.00;99.90;;;;;;4925950;29;20134;-79
2022/01/16 06:29:58;;;;;;;26.50;13.45;;;-2.00;99.90;;;;;;4927253;29;20052;-79
2022/01/16 06:32:25;;;;;;;27.35;14.77;;;-2.00;99.90;;;;;;4925741;29;20131;-80
2022/01/16 06:34:52;;;;;;;26.35;13.73;;;-1.90;99.90;;;;;;4930174;29;20103;-80
2022/01/16 06:37:20;;;;;;;27.80;15.60;;;-1.90;99.90;;;;;;4933781;29;20044;-83
2022/01/16 06:39:47;;;;;;;24.90;14.20;;;-1.80;99.90;;;;;;4923263;29;20080;-79
2022/01/16 06:42:14;;;;;;;25.95;13.82;;;-1.80;99.90;;;;;;4923601;29;20108;-81
2022/01/16 06:44:42;;;;;;;25.58;13.75;;;-1.90;99.90;;;;;;4928536;29;20549;-80
2022/01/16 06:47:09;;;;;;;25.00;12.93;;;-1.90;99.90;;;;;;4935739;29;20071;-84
2022/01/16 06:49:36;;;;;;;25.13;13.13;;;-1.90;99.90;;;;;;4929984;29;20506;-82
2022/01/16 06:52:05;;;;;;;28.20;14.80;;;-1.90;99.90;;;;;;4930157;29;20123;-79
2022/01/16 06:54:34;;;;;;;26.20;14.15;;;-1.80;99.90;;;;;;4929588;29;20090;-82
2022/01/16 06:57:01;;;;;;;25.48;13.63;;;-1.80;99.90;;;;;;4930000;29;20536;-80
2022/01/16 06:59:28;;;;;;;25.08;14.00;;;-1.80;99.90;;;;;;4929953;29;20452;-85
2022/01/16 07:01:55;;;;;;;26.17;14.48;;;-1.80;99.90;;;;;;4926442;29;20091;-82
2022/01/16 07:04:22;;;;;;;24.65;13.88;;;-1.80;99.90;;;;;;4928337;29;20107;-80
2022/01/16 07:06:49;;;;;;;24.73;13.77;;;-1.80;99.90;;;;;;4927050;29;20052;-80
2022/01/16 07:09:17;;;;;;;26.27;13.35;;;-1.80;99.90;;;;;;4926475;29;20072;-80
2022/01/16 07:11:45;;;;;;;22.73;12.40;;;-1.80;99.90;;;;;;4928245;29;20405;-82
2022/01/16 07:14:12;;;;;;;26.13;14.50;;;-1.80;99.90;;;;;;4929678;29;20048;-79
2022/01/16 07:16:39;;;;;;;24.42;13.65;;;-1.80;99.90;;;;;;4927307;29;20134;-79
2022/01/16 07:19:07;;;;;;;24.95;13.82;;;-1.80;99.90;;;;;;4932535;29;20120;-86
2022/01/16 07:21:34;;;;;;;25.15;13.77;;;-1.80;99.90;;;;;;4927372;29;20052;-80
2022/01/16 07:24:02;;;;;;;23.05;12.90;;;-1.80;99.90;;;;;;4930312;29;20142;-81
2022/01/16 07:26:29;;;;;;;21.60;12.70;;;-1.80;99.90;;;;;;4923874;29;20450;-80
2022/01/16 07:28:57;;;;;;;22.52;13.25;;;-1.70;99.90;;;;;;4928646;29;20080;-82
2022/01/16 07:31:24;;;;;;;23.25;13.98;;;-1.70;99.90;;;;;;4927310;29;20126;-81
2022/01/16 07:33:53;;;;;;;35.53;17.30;;;-1.70;99.90;;;;;;4926873;29;20124;-79
2022/01/16 07:36:20;;;;;;;44.58;22.27;;;-1.60;99.90;;;;;;4927662;29;20044;-81
2022/01/16 07:38:47;;;;;;;50.88;24.08;;;-1.60;99.90;;;;;;4932559;29;20147;-80
2022/01/16 07:41:14;;;;;;;35.10;17.45;;;-1.60;99.90;;;;;;4928879;29;20467;-79
2022/01/16 07:43:41;;;;;;;28.25;14.88;;;-1.60;99.90;;;;;;4929100;29;20128;-81
2022/01/16 07:46:09;;;;;;;26.02;13.60;;;-1.60;99.90;;;;;;4927284;29;20079;-79
2022/01/16 07:48:37;;;;;;;26.55;13.55;;;-1.50;99.90;;;;;;4928364;29;20127;-80
2022/01/16 07:51:04;;;;;;;27.85;14.57;;;-1.50;99.90;;;;;;4925871;29;20075;-83
2022/01/16 07:53:32;;;;;;;25.35;14.02;;;-1.50;99.90;;;;;;4925674;29;20056;-82
2022/01/16 07:56:00;;;;;;;26.70;13.35;;;-1.50;99.90;;;;;;4922923;29;20474;-80
2022/01/16 07:58:27;;;;;;;25.92;13.70;;;-1.60;99.90;;;;;;4924540;29;20048;-84
2022/01/16 08:00:56;;;;;;;25.65;13.70;;;-1.60;99.90;;;;;;4923620;29;20505;-80
2022/01/16 08:03:24;;;;;;;25.02;13.90;;;-1.60;99.90;;;;;;4927453;29;20048;-80
2022/01/16 08:05:52;;;;;;;25.25;14.45;;;-1.50;99.90;;;;;;4920450;29;20087;-81
2022/01/16 08:08:19;;;;;;;26.38;14.88;;;-1.60;99.90;;;;;;4925237;29;20062;-79
2022/01/16 08:10:46;;;;;;;25.70;14.57;;;-1.60;99.90;;;;;;4926845;29;20120;-82
2022/01/16 08:13:13;;;;;;;25.77;14.73;;;-1.60;99.90;;;;;;4928912;29;20112;-79
2022/01/16 08:15:40;;;;;;;27.17;15.43;;;-1.60;99.90;;;;;;4930950;29;20116;-81
2022/01/16 08:18:14;;;;;;;26.95;15.15;;;-1.70;99.90;;;;;;4928034;29;20135;-80
2022/01/16 08:20:45;;;;;;;25.98;15.27;;;-1.70;99.90;;;;;;4929440;29;20103;-79
2022/01/16 08:23:13;;;;;;;26.50;14.80;;;-1.70;99.90;;;;;;4934008;29;20112;-80
2022/01/16 08:25:43;;;;;;;28.55;15.15;;;-1.60;99.90;;;;;;4929846;29;20091;-79
2022/01/16 08:28:14;;;;;;;25.77;14.88;;;-1.60;99.90;;;;;;4929230;29;20075;-85
2022/01/16 08:30:41;;;;;;;26.95;14.50;;;-1.50;99.90;;;;;;4926698;29;20063;-84
2022/01/16 08:33:08;;;;;;;26.60;14.60;;;-1.50;99.90;;;;;;4927766;29;20496;-83
2022/01/16 08:35:36;;;;;;;26.90;14.77;;;-1.50;99.90;;;;;;4929781;29;20087;-82
2022/01/16 08:38:04;;;;;;;30.00;16.08;;;-1.50;99.90;;;;;;4928578;29;20071;-84
2022/01/16 08:40:32;;;;;;;27.30;15.70;;;-1.50;99.90;;;;;;4919169;29;20091;-85
2022/01/16 08:43:08;;;;;;;30.10;16.55;;;-1.50;99.90;;;;;;4928380;29;20127;-80
2022/01/16 08:45:36;;;;;;;30.02;16.67;;;-1.50;99.90;;;;;;4918084;29;20052;-80
2022/01/16 08:48:04;;;;;;;27.15;15.70;;;-1.40;99.90;;;;;;4928663;29;20121;-78
2022/01/16 08:50:31;;;;;;;26.73;15.88;;;-1.40;99.90;;;;;;4920387;29;20078;-80
2022/01/16 08:52:58;;;;;;;23.52;14.10;;;-1.30;99.90;;;;;;4927486;29;20055;-82
2022/01/16 08:55:28;;;;;;;28.25;15.32;;;-1.10;99.90;;;;;;4929184;29;20075;-81
2022/01/16 08:57:59;;;;;;;29.42;15.20;;;-1.10;99.90;;;;;;4929090;29;20059;-87
2022/01/16 09:00:28;;;;;;;25.25;14.90;;;-1.00;99.90;;;;;;4929406;29;20095;-79
2022/01/16 09:02:57;;;;;;;25.98;15.20;;;-0.90;99.90;;;;;;4924672;29;20438;-83
2022/01/16 09:05:24;;;;;;;27.70;15.48;;;-0.80;99.90;;;;;;4926099;29;20074;-82
2022/01/16 09:07:52;;;;;;;28.70;15.15;;;-0.70;99.90;;;;;;4930697;29;20087;-87
2022/01/16 09:10:19;;;;;;;25.63;15.15;;;-0.60;99.90;;;;;;4931538;29;20044;-81
2022/01/16 09:12:49;;;;;;;27.35;15.55;;;-0.40;99.90;;;;;;4930458;29;20052;-85
2022/01/16 09:15:18;;;;;;;30.23;16.00;;;-0.30;99.90;;;;;;4931941;29;20080;-87
2022/01/16 09:17:49;;;;;;;27.48;16.05;;;-0.20;99.90;;;;;;4928572;29;20622;-83
2022/01/16 09:20:16;;;;;;;30.48;16.98;;;-0.10;99.90;;;;;;4929400;29;20047;-79
2022/01/16 09:22:45;;;;;;;32.42;17.83;;;0.00;99.90;;;;;;4929052;29;20075;-82
2022/01/16 09:25:14;;;;;;;27.88;17.17;;;0.00;99.90;;;;;;4928453;29;20108;-83
2022/01/16 09:27:42;;;;;;;29.10;16.48;;;0.00;99.90;;;;;;4927695;29;20052;-79
2022/01/16 09:30:13;;;;;;;29.67;17.10;;;0.10;99.90;;;;;;4909860;29;20048;-84
2022/01/16 09:32:44;;;;;;;29.75;17.67;;;0.20;99.90;;;;;;4926285;29;20080;-82
2022/01/16 09:35:14;;;;;;;32.75;18.23;;;0.20;99.90;;;;;;4925299;29;20514;-83
2022/01/16 09:37:42;;;;;;;29.92;17.73;;;0.20;99.90;;;;;;4927474;29;20653;-79
2022/01/16 09:40:13;;;;;;;30.48;17.95;;;0.20;99.90;;;;;;4920017;29;20080;-82
2022/01/16 09:42:41;;;;;;;30.98;18.40;;;0.20;99.90;;;;;;4920102;29;20076;-82
2022/01/16 09:45:13;;;;;;;35.22;19.83;;;0.30;99.90;;;;;;4918864;29;20056;-83
2022/01/16 09:47:43;;;;;;;34.10;18.85;;;0.30;99.90;;;;;;4918757;29;20132;-84
2022/01/16 09:50:11;;;;;;;34.03;18.85;;;0.40;99.90;;;;;;4898999;29;20049;-82
2022/01/16 09:52:41;;;;;;;30.48;18.27;;;0.40;99.90;;;;;;4918352;29;20147;-90
2022/01/16 09:55:10;;;;;;;31.05;18.05;;;0.40;99.90;;;;;;4922272;29;20075;-91
2022/01/16 09:57:39;;;;;;;33.45;19.08;;;0.50;99.90;;;;;;4920233;29;20052;-83
2022/01/16 10:00:12;;;;;;;29.25;18.27;;;0.60;99.90;;;;;;4921325;29;20068;-92
2022/01/16 10:02:39;;;;;;;33.33;18.42;;;0.60;99.90;;;;;;4924209;29;20056;-94
2022/01/16 10:05:23;;;;;;;29.92;17.13;;;0.60;99.90;;;;;;4921733;29;20120;-91
2022/01/16 10:07:51;;;;;;;31.30;17.27;;;0.70;99.90;;;;;;4922230;29;20087;-89
2022/01/16 10:10:19;;;;;;;31.77;18.27;;;0.80;99.90;;;;;;4918083;29;20490;-80
2022/01/16 10:12:51;;;;;;;34.30;18.67;;;0.90;99.90;;;;;;4924189;29;20091;-81
2022/01/16 10:15:22;;;;;;;32.63;19.08;;;1.00;99.90;;;;;;4917924;29;20105;-85
2022/01/16 10:17:52;;;;;;;31.95;18.13;;;1.10;99.90;;;;;;4920414;29;20052;-90
2022/01/16 10:20:20;;;;;;;31.58;18.90;;;1.20;99.90;;;;;;4922235;29;20052;-87
2022/01/16 10:22:53;;;;;;;30.90;17.88;;;1.30;99.90;;;;;;4921384;29;20569;-86
2022/01/16 10:25:38;;;;;;;32.50;18.52;;;1.40;99.90;;;;;;4915753;29;20406;-92
2022/01/16 10:28:15;;;;;;;27.70;17.08;;;1.40;99.90;;;;;;4922927;29;20044;-89
2022/01/16 10:30:47;;;;;;;32.78;18.35;;;1.40;99.90;;;;;;4928829;29;20106;-92
2022/01/16 10:33:19;;;;;;;30.75;18.08;;;1.50;99.90;;;;;;4926906;29;20088;-90
2022/01/16 10:35:47;;;;;;;30.40;17.95;;;1.50;99.90;;;;;;4927626;29;20052;-88
2022/01/16 10:38:20;;;;;;;30.85;18.50;;;1.60;99.90;;;;;;4925030;29;20052;-79
2022/01/16 10:40:50;;;;;;;30.83;18.63;;;1.70;99.90;;;;;;4925550;29;20183;-88
2022/01/16 10:43:19;;;;;;;31.40;18.13;;;1.80;99.90;;;;;;4924967;29;20520;-84
2022/01/16 10:45:51;;;;;;;28.48;17.55;;;1.90;99.90;;;;;;4920929;29;20139;-83
2022/01/16 10:48:25;;;;;;;31.35;18.35;;;2.00;99.90;;;;;;4922392;29;20079;-86
2022/01/16 10:50:52;;;;;;;31.20;17.95;;;2.10;99.90;;;;;;4922022;29;20052;-82
2022/01/16 10:53:24;;;;;;;31.98;18.35;;;2.20;99.90;;;;;;4922950;29;20133;-93
2022/01/16 10:55:56;;;;;;;29.67;17.65;;;2.30;99.90;;;;;;4923333;29;20048;-92
2022/01/16 10:58:26;;;;;;;29.38;17.00;;;2.40;99.90;;;;;;4923336;29;20103;-94
2022/01/16 11:01:00;;;;;;;29.80;18.08;;;2.50;99.90;;;;;;4914754;29;20066;-84
2022/01/16 11:03:29;;;;;;;30.73;17.40;;;2.60;99.90;;;;;;4916274;29;20142;-85
2022/01/16 11:05:57;;;;;;;29.30;18.13;;;2.60;99.90;;;;;;4920040;29;20139;-87
2022/01/16 11:08:27;;;;;;;28.95;18.13;;;2.70;99.90;;;;;;4916280;29;20139;-82
2022/01/16 11:10:57;;;;;;;32.03;18.48;;;2.80;99.90;;;;;;4917909;29;20052;-86
2022/01/16 11:13:27;;;;;;;28.05;17.25;;;2.80;99.90;;;;;;4918115;29;20048;-91
2022/01/16 11:15:58;;;;;;;27.80;17.13;;;2.90;99.90;;;;;;4915825;29;20052;-81
2022/01/16 11:18:26;;;;;;;30.48;18.02;;;3.00;99.90;;;;;;4916218;29;20060;-84
2022/01/16 11:21:07;;;;;;;31.63;19.08;;;3.10;99.90;;;;;;4916566;29;20136;-82
2022/01/16 11:23:47;;;;;;;29.95;17.75;;;3.20;99.90;;;;;;4917819;29;20056;-86
2022/01/16 11:26:16;;;;;;;28.55;17.70;;;3.30;99.90;;;;;;4916583;29;20136;-82
2022/01/16 11:28:44;;;;;;;31.88;18.25;;;3.50;99.90;;;;;;4916441;29;20084;-79
2022/01/16 11:31:15;;;;;;;28.30;17.55;;;3.60;99.90;;;;;;4916558;29;20078;-82
2022/01/16 11:33:46;;;;;;;29.92;18.83;;;3.80;99.90;;;;;;4914319;29;20048;-91
2022/01/16 11:36:16;;;;;;;28.98;17.73;;;3.90;99.90;;;;;;4923461;29;20058;-96
2022/01/16 11:38:47;;;;;;;30.30;17.73;;;3.90;99.90;;;;;;4917152;29;20055;-92
2022/01/16 11:41:20;;;;;;;31.40;17.58;;;4.00;99.90;;;;;;4925334;29;20080;-95
2022/01/16 11:43:48;;;;;;;30.58;17.30;;;4.00;99.90;;;;;;4926084;29;20059;-93
2022/01/16 11:46:18;;;;;;;26.42;16.63;;;4.10;99.90;;;;;;4951426;23;20151;-84
2022/01/16 11:48:53;;;;;;;28.42;17.40;;;4.10;99.90;;;;;;4917030;29;20055;-87
2022/01/16 11:51:59;;;;;;;31.23;18.13;;;4.20;99.90;;;;;;4916189;29;20080;-83
2022/01/16 11:54:28;;;;;;;27.33;16.58;;;4.20;99.90;;;;;;4916046;29;20541;-84
2022/01/16 11:57:18;;;;;;;32.13;18.15;;;4.10;99.90;;;;;;4922959;29;20142;-83
2022/01/16 11:59:47;;;;;;;31.90;18.13;;;4.10;99.90;;;;;;4924499;29;20055;-83
2022/01/16 12:02:25;;;;;;;32.85;18.50;;;4.00;99.90;;;;;;4924755;29;20142;-81
2022/01/16 12:05:07;;;;;;;32.05;18.88;;;4.00;99.90;;;;;;4918795;29;20072;-80
2022/01/16 12:08:10;;;;;;;30.77;17.77;;;3.90;99.90;;;;;;4912977;29;20044;-78
2022/01/16 12:10:46;;;;;;;28.90;16.77;;;3.80;99.90;;;;;;4889391;29;20548;-80
2022/01/16 12:13:45;;;;;;;26.63;16.98;;;3.80;99.90;;;;;;4920874;29;20311;-82
2022/01/16 12:16:45;;;;;;;27.23;16.17;;;3.70;99.90;;;;;;4921271;29;20421;-79
2022/01/16 12:19:51;;;;;;;29.23;16.85;;;3.60;99.90;;;;;;4920062;29;20047;-80
2022/01/16 12:22:43;;;;;;;28.95;16.35;;;3.60;99.90;;;;;;4920696;29;20063;-79
2022/01/16 12:25:18;;;;;;;28.33;16.65;;;3.60;99.90;;;;;;4918638;29;20379;-80
2022/01/16 12:27:56;;;;;;;29.75;17.13;;;3.60;99.90;;;;;;4918845;29;20135;-79
2022/01/16 12:30:50;;;;;;;28.08;16.40;;;3.60;99.90;;;;;;4918844;29;20558;-81
2022/01/16 12:33:28;;;;;;;27.40;15.98;;;3.60;99.90;;;;;;4916747;29;20131;-82
2022/01/16 12:36:09;;;;;;;30.20;17.17;;;3.50;99.90;;;;;;4919208;29;20056;-79
2022/01/16 12:38:53;;;;;;;28.08;16.30;;;3.50;99.90;;;;;;4912576;29;20051;-79
2022/01/16 12:41:27;;;;;;;28.20;16.63;;;3.50;99.90;;;;;;4917875;29;20058;-79
2022/01/16 12:43:58;;;;;;;28.40;16.17;;;3.40;99.90;;;;;;4922059;29;20048;-79
2022/01/16 12:46:31;;;;;;;28.42;16.52;;;3.40;99.90;;;;;;4922088;29;20135;-80
2022/01/16 12:49:05;;;;;;;27.63;16.33;;;3.40;99.90;;;;;;4922113;29;20123;-80
2022/01/16 12:51:36;;;;;;;29.00;17.27;;;3.50;99.90;;;;;;4921893;29;20510;-79
2022/01/16 12:54:09;;;;;;;30.88;17.08;;;3.50;99.90;;;;;;4921336;29;20284;-79
2022/01/16 12:56:39;;;;;;;30.92;17.33;;;3.50;99.90;;;;;;4921279;29;20055;-79
2022/01/16 12:59:17;;;;;;;31.20;17.70;;;3.50;99.90;;;;;;4920985;29;20465;-80
2022/01/16 13:01:50;;;;;;;29.75;17.38;;;3.40;99.90;;;;;;4920701;29;20127;-78
2022/01/16 13:04:28;;;;;;;32.63;18.23;;;3.40;99.90;;;;;;4920673;29;20075;-78
2022/01/16 13:06:58;;;;;;;29.10;16.85;;;3.40;99.90;;;;;;4920984;29;20048;-79
2022/01/16 13:09:27;;;;;;;33.85;19.10;;;3.30;99.90;;;;;;4920397;29;20131;-78
2022/01/16 13:11:58;;;;;;;30.65;18.98;;;3.30;99.90;;;;;;4919254;29;20482;-78
2022/01/16 13:14:29;;;;;;;32.22;18.30;;;3.30;99.90;;;;;;4918637;29;20079;-79
2022/01/16 13:16:59;;;;;;;30.42;17.52;;;3.30;99.90;;;;;;4919030;29;20143;-79
2022/01/16 13:19:28;;;;;;;34.90;18.70;;;3.30;99.90;;;;;;4919711;29;20048;-81
2022/01/16 13:22:03;;;;;;;31.23;17.52;;;3.20;99.90;;;;;;4919319;29;20490;-79
2022/01/16 13:24:38;;;;;;;30.63;17.77;;;3.20;99.90;;;;;;4920208;29;20091;-80
2022/01/16 13:27:08;;;;;;;;;;;3.20;99.90;;;;;;4922013;29;20127;-80
2022/01/16 13:29:39;;;;;;;27.33;16.17;;;3.20;99.90;;;;;;4920689;29;20022;-79
2022/01/16 13:32:09;;;;;;;30.60;16.90;;;3.30;99.90;;;;;;4919903;29;20446;-79
2022/01/16 13:34:40;;;;;;;32.10;17.35;;;3.30;99.90;;;;;;4919293;29;20131;-79
2022/01/16 13:37:15;;;;;;;30.58;17.30;;;3.20;99.90;;;;;;4919630;29;20083;-79
2022/01/16 13:39:46;;;;;;;32.08;16.92;;;3.30;99.90;;;;;;4919854;29;20409;-78
2022/01/16 13:42:38;;;;;;;31.40;17.58;;;3.30;99.90;;;;;;4918982;29;20052;-80
2022/01/16 13:45:21;;;;;;;27.08;15.57;;;3.30;99.90;;;;;;4919856;29;20084;-80
2022/01/16 13:47:55;;;;;;;27.42;15.57;;;3.30;99.90;;;;;;4920978;29;20139;-79
2022/01/16 13:50:23;;;;;;;29.90;16.20;;;3.30;99.90;;;;;;4921461;29;20613;-80
2022/01/16 13:52:56;;;;;;;25.33;15.00;;;3.30;99.90;;;;;;4919146;29;20044;-79
2022/01/16 13:55:27;;;;;;;30.35;16.15;;;3.30;99.90;;;;;;4919571;29;20091;-80
2022/01/16 13:57:57;;;;;;;33.58;17.17;;;3.40;99.90;;;;;;4919383;29;20079;-80
2022/01/16 14:00:33;;;;;;;29.17;16.40;;;3.40;99.90;;;;;;4919809;29;20135;-78
2022/01/16 14:03:21;;;;;;;26.02;15.05;;;3.40;99.90;;;;;;4919038;29;20138;-79
2022/01/16 14:05:51;;;;;;;25.42;15.02;;;3.40;99.90;;;;;;4919215;29;20083;-78
2022/01/16 14:08:23;;;;;;;25.60;14.23;;;3.40;99.90;;;;;;4919048;29;20076;-79
2022/01/16 14:10:52;;;;;;;25.42;14.25;;;3.40;99.90;;;;;;4918909;29;20067;-79
2022/01/16 14:13:19;;;;;;;21.58;12.98;;;3.50;99.90;;;;;;4919508;29;20075;-80
2022/01/16 14:16:09;;;;;;;22.63;12.40;;;3.40;99.90;;;;;;4918907;29;20139;-80
2022/01/16 14:19:08;;;;;;;22.38;11.68;;;3.40;99.90;;;;;;4919764;29;20078;-80
2022/01/16 14:22:02;;;;;;;17.83;9.90;;;3.50;99.90;;;;;;4917571;29;20126;-79
2022/01/16 14:24:33;;;;;;;19.20;9.45;;;3.50;99.90;;;;;;4918146;29;20055;-81
2022/01/16 14:27:02;;;;;;;16.80;9.45;;;3.50;99.90;;;;;;4916834;29;20059;-79
2022/01/16 14:29:30;;;;;;;15.52;8.75;;;3.40;99.90;;;;;;4915143;29;20953;-81
2022/01/16 14:31:59;;;;;;;16.45;9.07;;;3.50;99.90;;;;;;4914357;29;20078;-80
2022/01/16 14:34:27;;;;;;;16.45;8.80;;;3.50;99.90;;;;;;4913476;29;20119;-81
2022/01/16 14:36:55;;;;;;;14.82;7.70;;;3.50;99.90;;;;;;4913755;29;20458;-81
2022/01/16 14:39:23;;;;;;;12.95;7.15;;;3.50;99.90;;;;;;4912217;29;20738;-80
2022/01/16 14:41:53;;;;;;;14.23;7.63;;;3.50;99.90;;;;;;4914096;29;20067;-79
2022/01/16 14:44:23;;;;;;;14.27;7.63;;;3.50;99.90;;;;;;4914249;29;20410;-79
2022/01/16 14:46:50;;;;;;;13.73;7.43;;;3.50;99.90;;;;;;4913848;29;20126;-80
2022/01/16 14:49:18;;;;;;;13.10;7.10;;;3.60;99.90;;;;;;4912989;29;20048;-81
2022/01/16 14:51:45;;;;;;;14.30;7.47;;;3.50;99.90;;;;;;4913205;29;20099;-80
2022/01/16 14:54:13;;;;;;;13.35;7.50;;;3.60;99.90;;;;;;4913271;29;20432;-80
2022/01/16 14:56:42;;;;;;;14.52;7.97;;;3.60;99.90;;;;;;4913641;29;20143;-80
2022/01/16 14:59:12;;;;;;;13.05;7.15;;;3.60;99.90;;;;;;4913709;29;20131;-84
2022/01/16 15:01:41;;;;;;;13.90;7.53;;;3.60;99.90;;;;;;4916561;29;20047;-82
2022/01/16 15:04:10;;;;;;;14.02;7.68;;;3.60;99.90;;;;;;4918672;29;20139;-85
2022/01/16 15:06:38;;;;;;;11.88;6.85;;;3.60;99.90;;;;;;4919570;29;20044;-82
2022/01/16 15:09:06;;;;;;;12.07;6.88;;;3.60;99.90;;;;;;4914175;29;20422;-85
2022/01/16 15:11:34;;;;;;;12.75;6.80;;;3.60;99.80;;;;;;4911322;29;20143;-84
2022/01/16 15:14:02;;;;;;;11.85;6.55;;;3.60;99.50;;;;;;4922516;29;20478;-83
2022/01/16 15:16:33;;;;;;;11.38;6.13;;;3.70;99.40;;;;;;4920311;29;20135;-84
2022/01/16 15:19:07;;;;;;;11.32;6.25;;;3.70;99.70;;;;;;4916929;29;20059;-83
2022/01/16 15:21:39;;;;;;;13.67;7.27;;;3.70;99.30;;;;;;4910298;29;20052;-84
2022/01/16 15:24:07;;;;;;;11.23;6.20;;;3.70;99.30;;;;;;4911478;29;20040;-84
2022/01/16 15:26:35;;;;;;;12.23;7.07;;;3.70;99.00;;;;;;4916956;29;20186;-82
2022/01/16 15:29:02;;;;;;;12.90;7.18;;;3.70;99.20;;;;;;4915939;29;20050;-83
2022/01/16 15:31:30;;;;;;;14.20;7.47;;;3.80;99.30;;;;;;4917801;29;20043;-84
2022/01/16 15:33:57;;;;;;;13.45;7.53;;;3.80;99.30;;;;;;4919177;29;20494;-85
2022/01/16 15:36:25;;;;;;;13.38;7.93;;;3.80;99.30;;;;;;4915611;29;20530;-85
2022/01/16 15:38:53;;;;;;;13.07;7.20;;;3.80;99.20;;;;;;4919101;29;20464;-82
2022/01/16 15:41:20;;;;;;;11.32;6.85;;;3.80;99.20;;;;;;4926262;29;20080;-80
2022/01/16 15:43:47;;;;;;;13.18;7.20;;;3.90;99.10;;;;;;4916742;29;20075;-80
2022/01/16 15:46:15;;;;;;;12.73;7.03;;;3.80;99.10;;;;;;4916917;29;20147;-81
2022/01/16 15:48:45;;;;;;;13.27;6.95;;;3.90;99.10;;;;;;4911696;29;20055;-81
2022/01/16 15:51:13;;;;;;;12.77;7.50;;;3.90;99.00;;;;;;4922277;29;20132;-82
2022/01/16 15:53:40;;;;;;;13.80;7.95;;;3.90;99.00;;;;;;4917867;29;20135;-82
2022/01/16 15:56:08;;;;;;;13.90;7.20;;;3.90;99.00;;;;;;4916242;29;20524;-82
2022/01/16 15:58:35;;;;;;;13.55;7.68;;;3.90;98.90;;;;;;4917670;29;20048;-81
2022/01/16 16:01:04;;;;;;;12.15;7.20;;;3.90;98.90;;;;;;4915709;29;20087;-81
2022/01/16 16:03:34;;;;;;;12.25;7.22;;;3.90;98.90;;;;;;4916765;29;20421;-82
2022/01/16 16:06:03;;;;;;;13.45;7.65;;;3.80;98.80;;;;;;4921347;29;20043;-81
2022/01/16 16:08:30;;;;;;;12.95;7.38;;;3.80;98.80;;;;;;4918308;29;20067;-82
2022/01/16 16:10:58;;;;;;;14.00;7.43;;;3.80;98.80;;;;;;4917494;29;20040;-82
2022/01/16 16:13:25;;;;;;;11.73;7.05;;;3.80;98.80;;;;;;4915242;29;20427;-80
2022/01/16 16:15:53;;;;;;;12.43;6.80;;;3.80;99.00;;;;;;4916270;29;20055;-81
2022/01/16 16:18:20;;;;;;;12.88;7.18;;;3.80;98.80;;;;;;4909828;29;20495;-83
2022/01/16 16:20:47;;;;;;;12.18;6.95;;;3.80;98.80;;;;;;4913637;29;20128;-82
2022/01/16 16:23:16;;;;;;;13.07;7.03;;;3.80;98.80;;;;;;4916848;29;20067;-82
2022/01/16 16:25:43;;;;;;;12.73;7.03;;;3.80;98.80;;;;;;4918529;29;20052;-81
2022/01/16 16:28:10;;;;;;;12.68;7.05;;;3.80;98.80;;;;;;4918328;29;20120;-80
2022/01/16 16:30:38;;;;;;;13.32;6.95;;;3.80;98.70;;;;;;4919347;29;20135;-81
2022/01/16 16:33:05;;;;;;;13.32;6.90;;;3.80;98.70;;;;;;4918041;29;20079;-81
2022/01/16 16:35:33;;;;;;;16.17;7.78;;;3.80;98.60;;;;;;4915725;29;20060;-81
2022/01/16 16:38:01;;;;;;;13.85;7.60;;;3.80;98.60;;;;;;4916060;29;20511;-81
2022/01/16 16:40:31;;;;;;;12.77;7.47;;;3.90;98.60;;;;;;4918281;29;20050;-82
2022/01/16 16:42:58;;;;;;;13.60;7.88;;;3.90;98.60;;;;;;4919799;29;20451;-82
2022/01/16 16:45:25;;;;;;;13.50;7.82;;;3.90;98.60;;;;;;4917404;29;20188;-82
2022/01/16 16:47:52;;;;;;;13.52;7.50;;;3.90;98.40;;;;;;4917625;29;20409;-82
2022/01/16 16:50:19;;;;;;;12.77;7.03;;;3.90;98.30;;;;;;4914927;29;20071;-80
2022/01/16 16:52:47;;;;;;;13.85;7.90;;;3.90;98.60;;;;;;4916701;29;20132;-81
2022/01/16 16:55:14;;;;;;;12.90;7.38;;;3.90;98.30;;;;;;4916947;29;20059;-82
2022/01/16 16:57:43;;;;;;;13.32;7.50;;;4.00;98.20;;;;;;4916968;29;20079;-82
2022/01/16 17:00:11;;;;;;;12.65;7.03;;;4.00;98.10;;;;;;4916361;29;20107;-83
2022/01/16 17:02:39;;;;;;;12.88;7.55;;;4.00;98.10;;;;;;4913321;29;20139;-83
2022/01/16 17:05:09;;;;;;;13.85;7.68;;;4.00;98.20;;;;;;4912392;29;20083;-84
2022/01/16 17:07:37;;;;;;;15.40;8.38;;;4.00;98.20;;;;;;4920791;29;20477;-84
2022/01/16 17:10:05;;;;;;;12.95;7.35;;;4.00;98.10;;;;;;4919845;29;20048;-84
2022/01/16 17:12:32;;;;;;;13.38;7.43;;;4.00;98.10;;;;;;4917365;29;20071;-82
2022/01/16 17:15:01;;;;;;;13.50;7.57;;;4.00;98.10;;;;;;4915194;29;20131;-79
2022/01/16 17:17:28;;;;;;;13.35;7.60;;;4.10;98.00;;;;;;4910620;29;20135;-83
2022/01/16 17:19:57;;;;;;;13.10;7.40;;;4.10;98.10;;;;;;4917003;29;20056;-80
2022/01/16 17:22:27;;;;;;;12.65;7.38;;;4.10;98.30;;;;;;4915566;29;20052;-82
2022/01/16 17:24:59;;;;;;;12.95;7.22;;;4.10;98.10;;;;;;4917605;29;20056;-81
2022/01/16 17:27:27;;;;;;;12.98;7.72;;;4.10;98.20;;;;;;4916329;29;20050;-81
2022/01/16 17:29:54;;;;;;;23.40;11.23;;;4.10;98.20;;;;;;4915446;29;20145;-79
2022/01/16 17:32:23;;;;;;;24.27;12.43;;;4.10;98.20;;;;;;4897810;29;20052;-80
2022/01/16 17:34:51;;;;;;;14.77;8.23;;;4.10;98.20;;;;;;4914060;29;20056;-79
2022/01/16 17:37:19;;;;;;;13.10;7.20;;;4.10;98.30;;;;;;4915214;29;20170;-80
2022/01/16 17:39:47;;;;;;;12.82;7.60;;;4.10;98.30;;;;;;4909328;29;20136;-80
2022/01/16 17:42:16;;;;;;;12.25;7.00;;;4.10;98.30;;;;;;4912206;29;20051;-82
2022/01/16 17:44:43;;;;;;;12.60;6.72;;;4.10;98.30;;;;;;4915766;29;20495;-79
2022/01/16 17:47:12;;;;;;;11.73;7.22;;;4.00;98.30;;;;;;4915487;29;20509;-81
2022/01/16 17:49:41;;;;;;;11.38;6.80;;;4.10;98.30;;;;;;4912961;29;20052;-81
2022/01/16 17:52:09;;;;;;;14.18;7.68;;;4.10;98.40;;;;;;4911303;29;20059;-82
2022/01/16 17:54:36;;;;;;;14.35;8.13;;;4.10;98.30;;;;;;4913087;29;20115;-83
2022/01/16 17:57:04;;;;;;;16.73;7.18;;;4.10;98.40;;;;;;4911335;29;20637;-82
2022/01/16 17:59:31;;;;;;;12.02;7.55;;;4.10;98.30;;;;;;4909982;29;20582;-82
2022/01/16 18:01:58;;;;;;;12.93;7.47;;;4.10;98.30;;;;;;4909270;29;20052;-82
2022/01/16 18:04:25;;;;;;;13.63;7.07;;;4.10;98.30;;;;;;4901867;29;20080;-81
2022/01/16 18:06:53;;;;;;;13.52;7.70;;;4.10;98.30;;;;;;4912019;29;20080;-81
2022/01/16 18:09:21;;;;;;;13.65;7.38;;;4.10;98.30;;;;;;4913611;29;20143;-81
2022/01/16 18:11:49;;;;;;;12.07;7.45;;;4.10;98.30;;;;;;4914959;29;20052;-82
2022/01/16 18:14:16;;;;;;;12.88;7.10;;;4.10;98.20;;;;;;4914464;29;20060;-81
2022/01/16 18:16:43;;;;;;;13.23;7.05;;;4.10;98.30;;;;;;4914119;29;20054;-80
2022/01/16 18:19:10;;;;;;;13.45;7.25;;;4.10;98.30;;;;;;4914311;29;20052;-81
2022/01/16 18:21:38;;;;;;;13.10;7.30;;;4.10;98.30;;;;;;4914989;29;20060;-87
2022/01/16 18:24:08;;;;;;;12.50;7.18;;;4.10;98.30;;;;;;4918057;29;20066;-88
2022/01/16 18:26:35;;;;;;;12.93;7.50;;;4.10;98.40;;;;;;4919050;29;20552;-85
2022/01/16 18:29:02;;;;;;;11.60;6.80;;;4.10;98.30;;;;;;4919367;29;20044;-88
2022/01/16 18:31:29;;;;;;;12.55;7.22;;;4.10;98.40;;;;;;4912308;29;20044;-84
2022/01/16 18:33:56;;;;;;;13.25;7.75;;;4.10;98.40;;;;;;4918690;29;20054;-85
2022/01/16 18:36:24;;;;;;;13.52;7.97;;;4.10;98.40;;;;;;4917628;29;20050;-83
2022/01/16 18:38:51;;;;;;;15.15;8.50;;;4.10;98.50;;;;;;4916641;29;20139;-82
2022/01/16 18:41:19;;;;;;;25.77;12.45;;;4.00;98.50;;;;;;4916491;29;20468;-81
2022/01/16 18:43:47;;;;;;;14.25;8.27;;;4.10;98.60;;;;;;4912788;29;20044;-80
2022/01/16 18:46:14;;;;;;;15.73;8.15;;;4.10;98.60;;;;;;4915541;29;20052;-82
2022/01/16 18:48:43;;;;;;;14.45;8.02;;;4.10;98.60;;;;;;4911733;29;20056;-82
2022/01/16 18:51:11;;;;;;;15.88;8.43;;;4.10;98.60;;;;;;4913803;29;20067;-83
2022/01/16 18:53:38;;;;;;;13.32;7.85;;;4.10;98.70;;;;;;4917633;29;20458;-82